createdAt,value
2022-11-15T00:01:49.072Z,51.17
2022-11-15T00:06:10.086Z,47.58
2022-11-15T00:10:30.334Z,50.03
2022-11-15T00:14:50.683Z,54.13
2022-11-15T00:19:10.829Z,59.20
2022-11-15T00:23:31.679Z,59.60
2022-11-15T00:27:56.382Z,58.63
2022-11-15T00:32:17.573Z,59.70
2022-11-15T00:36:37.727Z,63.58
2022-11-15T00:40:58.482Z,65.18
2022-11-15T00:45:18.689Z,64.45
2022-11-15T00:49:39.242Z,64.35
2022-11-15T00:53:59.637Z,70.20
2022-11-15T00:58:20.045Z,66.80
2022-11-15T01:02:40.488Z,72.78
2022-11-15T01:07:01.046Z,73.05
2022-11-15T01:11:21.567Z,73.03
2022-11-15T01:15:42.485Z,75.18
2022-11-15T01:20:04.034Z,72.80
2022-11-15T01:24:24.288Z,75.63
2022-11-15T01:28:44.457Z,78.22
2022-11-15T01:33:05.543Z,88.78
2022-11-15T01:37:25.814Z,88.50
2022-11-15T01:41:46.371Z,81.25
2022-11-15T01:46:26.394Z,93.22
2022-11-15T01:50:46.860Z,90.93
2022-11-15T01:55:23.011Z,94.35
2022-11-15T01:59:46.521Z,96.35
2022-11-15T02:04:14.091Z,88.50
2022-11-15T02:08:34.638Z,93.28
2022-11-15T02:12:57.161Z,98.20
2022-11-15T02:17:23.427Z,92.63
2022-11-15T02:21:53.425Z,98.03
2022-11-15T02:26:29.067Z,100.47
2022-11-15T02:30:55.954Z,94.43
2022-11-15T02:35:46.734Z,96.55
2022-11-15T02:40:39.386Z,93.63
2022-11-15T02:45:04.794Z,94.95
2022-11-15T02:49:29.270Z,93.85
2022-11-15T02:53:49.652Z,95.00
2022-11-15T02:58:19.422Z,92.45
2022-11-15T03:02:57.640Z,105.00
2022-11-15T03:07:44.542Z,94.00
2022-11-15T03:12:11.682Z,99.03
2022-11-15T03:16:44.692Z,95.85
2022-11-15T03:21:09.450Z,95.38
2022-11-15T03:25:32.876Z,102.75
2022-11-15T03:30:00.679Z,100.93
2022-11-15T03:34:28.057Z,107.60
2022-11-15T03:38:49.135Z,107.20
2022-11-15T03:43:30.079Z,109.70
2022-11-15T03:47:54.779Z,112.68
2022-11-15T03:52:19.757Z,116.63
2022-11-15T03:56:39.805Z,114.90
2022-11-15T04:01:00.709Z,117.07
2022-11-15T04:05:21.565Z,109.13
2022-11-15T04:10:00.613Z,115.65
2022-11-15T04:14:20.953Z,108.22
2022-11-15T04:18:42.215Z,115.13
2022-11-15T04:23:26.292Z,108.47
2022-11-15T04:27:46.977Z,109.30
2022-11-15T04:32:08.102Z,105.75
2022-11-15T04:36:47.380Z,99.50
2022-11-15T04:41:07.915Z,117.53
2022-11-15T04:45:28.138Z,110.38
2022-11-15T04:49:48.420Z,107.55
2022-11-15T04:54:09.250Z,113.18
2022-11-15T04:58:29.387Z,109.55
2022-11-15T05:03:13.010Z,110.63
2022-11-15T05:07:32.895Z,123.53
2022-11-15T05:11:53.326Z,110.47
2022-11-15T05:16:13.381Z,125.28
2022-11-15T05:20:33.933Z,123.95
2022-11-15T05:24:54.324Z,130.00
2022-11-15T05:29:14.825Z,124.30
2022-11-15T05:33:36.965Z,120.53
2022-11-15T05:37:57.723Z,117.40
2022-11-15T05:42:18.083Z,124.55
2022-11-15T05:46:41.343Z,120.25
2022-11-15T05:51:03.192Z,127.82
2022-11-15T05:55:23.794Z,123.90
2022-11-15T05:59:44.521Z,125.03
2022-11-15T06:04:05.103Z,136.13
2022-11-15T06:08:25.669Z,115.28
2022-11-15T06:12:46.318Z,122.63
2022-11-15T06:17:11.173Z,138.88
2022-11-15T06:21:31.895Z,127.70
2022-11-15T06:25:52.288Z,136.60
2022-11-15T06:30:12.989Z,139.23
2022-11-15T06:34:33.276Z,142.77
2022-11-15T06:38:53.664Z,142.80
2022-11-15T06:43:15.576Z,140.75
2022-11-15T06:47:36.007Z,149.07
2022-11-15T06:51:56.597Z,148.25
2022-11-15T06:56:16.865Z,156.52
2022-11-15T07:00:37.396Z,147.00
2022-11-15T07:04:57.729Z,153.63
2022-11-15T07:09:18.309Z,153.07
2022-11-15T07:13:38.815Z,148.05
2022-11-15T07:18:02.196Z,169.13
2022-11-15T07:22:22.214Z,149.43
2022-11-15T07:26:42.852Z,146.23
2022-11-15T07:31:08.612Z,135.95
2022-11-15T07:35:29.667Z,150.07
2022-11-15T07:39:49.812Z,147.27
2022-11-15T07:44:10.393Z,143.88
2022-11-15T07:48:42.995Z,141.88
2022-11-15T07:53:04.944Z,127.53
2022-11-15T07:57:25.238Z,109.88
2022-11-15T08:01:46.208Z,101.63
2022-11-15T08:06:06.988Z,97.13
2022-11-15T08:10:28.507Z,107.25
2022-11-15T08:14:49.354Z,106.50
2022-11-15T08:19:09.648Z,101.82
2022-11-15T08:23:30.008Z,109.68
2022-11-15T08:27:53.656Z,100.70
2022-11-15T08:32:13.806Z,102.40
2022-11-15T08:36:43.040Z,109.68
2022-11-15T08:41:07.111Z,100.80
2022-11-15T08:45:27.463Z,86.82
2022-11-15T08:49:48.060Z,76.30
2022-11-15T08:54:08.593Z,86.30
2022-11-15T08:58:29.763Z,78.65
2022-11-15T09:02:50.252Z,66.15
2022-11-15T09:07:12.435Z,72.63
2022-11-15T09:11:32.952Z,74.85
2022-11-15T09:15:53.191Z,78.97
2022-11-15T09:20:13.583Z,85.63
2022-11-15T09:24:33.770Z,81.68
2022-11-15T09:28:54.348Z,81.78
2022-11-15T09:33:14.889Z,74.00
2022-11-15T09:37:35.319Z,78.78
2022-11-15T09:42:13.698Z,78.93
2022-11-15T09:46:46.469Z,82.40
2022-11-15T09:51:13.637Z,69.30
2022-11-15T09:55:22.258Z,78.78
2022-11-15T09:59:45.551Z,70.75
2022-11-15T10:03:47.486Z,78.10
2022-11-15T10:08:37.007Z,83.53
2022-11-15T10:12:40.690Z,80.60
2022-11-15T10:16:48.367Z,79.35
2022-11-15T10:20:51.713Z,77.60
2022-11-15T10:25:13.706Z,69.90
2022-11-15T10:29:26.818Z,74.97
2022-11-15T10:33:37.605Z,79.60
2022-11-15T10:37:41.899Z,87.03
2022-11-15T10:41:43.713Z,74.45
2022-11-15T10:45:46.840Z,75.32
2022-11-15T10:49:58.880Z,78.32
2022-11-15T10:54:02.092Z,93.13
2022-11-15T10:58:07.881Z,82.95
2022-11-15T11:02:33.315Z,80.63
2022-11-15T11:06:55.171Z,85.50
2022-11-15T11:11:03.157Z,82.80
2022-11-15T11:15:13.008Z,87.25
2022-11-15T11:19:38.313Z,77.05
2022-11-15T11:23:42.897Z,74.57
2022-11-15T11:28:00.236Z,80.53
2022-11-15T11:32:23.592Z,86.75
2022-11-15T11:36:28.212Z,86.97
2022-11-15T11:41:00.493Z,83.68
2022-11-15T11:45:14.610Z,87.70
2022-11-15T11:49:18.742Z,86.93
2022-11-15T11:53:42.056Z,82.90
2022-11-15T11:58:02.389Z,73.60
2022-11-15T12:02:19.182Z,80.18
2022-11-15T12:06:38.530Z,77.25
2022-11-15T12:10:42.582Z,81.00
2022-11-15T12:14:49.162Z,81.90
2022-11-15T12:18:54.221Z,80.28
2022-11-15T12:23:14.357Z,85.22
2022-11-15T12:27:30.807Z,87.07
2022-11-15T12:31:35.228Z,77.85
2022-11-15T12:35:43.538Z,75.85
2022-11-15T12:40:06.676Z,78.72
2022-11-15T12:44:13.966Z,82.47
2022-11-15T12:48:18.605Z,72.82
2022-11-15T12:52:21.095Z,87.30
2022-11-15T12:56:23.925Z,113.68
2022-11-15T13:00:26.203Z,102.97
2022-11-15T13:04:29.207Z,87.22
2022-11-15T13:08:40.462Z,81.90
2022-11-15T13:12:45.174Z,84.53
2022-11-15T13:16:48.554Z,83.25
2022-11-15T13:20:50.253Z,85.80
2022-11-15T13:24:52.571Z,86.22
2022-11-15T13:28:56.409Z,87.97
2022-11-15T13:33:08.880Z,96.40
2022-11-15T13:37:29.725Z,104.22
2022-11-15T13:41:37.266Z,96.45
2022-11-15T13:45:38.979Z,106.82
2022-11-15T13:49:41.734Z,91.90
2022-11-15T13:53:49.667Z,94.43
2022-11-15T13:57:59.676Z,92.80
2022-11-15T14:02:18.549Z,170.57
2022-11-15T14:06:23.603Z,105.60
2022-11-15T14:10:28.762Z,105.60
2022-11-15T14:14:31.023Z,119.13
2022-11-15T14:18:44.818Z,128.15
2022-11-15T14:23:04.770Z,110.72
2022-11-15T14:27:23.565Z,108.25
2022-11-15T14:31:25.421Z,105.15
2022-11-15T14:35:27.540Z,116.53
2022-11-15T14:39:29.164Z,112.28
2022-11-15T14:43:31.085Z,106.32
2022-11-15T14:47:32.733Z,110.38
2022-11-15T14:51:34.710Z,150.15
2022-11-15T14:55:37.040Z,139.38
2022-11-15T14:59:42.297Z,110.03
2022-11-15T15:03:45.802Z,117.38
2022-11-15T15:07:49.227Z,113.97
2022-11-15T15:11:51.220Z,118.25
2022-11-15T15:15:53.730Z,112.47
2022-11-15T15:19:55.559Z,115.93
2022-11-15T15:23:58.209Z,111.43
2022-11-15T15:28:00.430Z,114.75
2022-11-15T15:32:02.455Z,102.43
2022-11-15T15:36:04.601Z,104.75
2022-11-15T15:40:14.863Z,106.28
2022-11-15T15:44:16.719Z,121.68
2022-11-15T15:48:18.707Z,132.02
2022-11-15T15:52:20.399Z,117.57
2022-11-15T15:56:22.335Z,124.40
2022-11-15T16:00:25.984Z,113.70
2022-11-15T16:04:29.831Z,106.72
2022-11-15T16:08:47.448Z,118.03
2022-11-15T16:12:50.062Z,117.63
2022-11-15T16:16:51.854Z,113.10
2022-11-15T16:20:57.599Z,128.30
2022-11-15T16:24:59.405Z,130.55
2022-11-15T16:29:01.421Z,126.88
2022-11-15T16:33:03.094Z,129.77
2022-11-15T16:37:05.780Z,105.68
2022-11-15T16:41:07.695Z,114.38
2022-11-15T16:45:12.931Z,114.20
2022-11-15T16:49:15.469Z,107.80
2022-11-15T16:53:18.047Z,109.93
2022-11-15T16:57:19.728Z,115.32
2022-11-15T17:01:35.701Z,99.47
2022-11-15T17:05:37.664Z,114.20
2022-11-15T17:09:39.670Z,123.20
2022-11-15T17:13:41.481Z,131.77
2022-11-15T17:17:45.662Z,136.15
2022-11-15T17:21:51.767Z,136.38
2022-11-15T17:26:23.874Z,137.00
2022-11-15T17:30:26.413Z,132.98
2022-11-15T17:34:28.376Z,123.65
2022-11-15T17:38:30.719Z,116.32
2022-11-15T17:42:32.975Z,128.55
2022-11-15T17:46:36.327Z,99.82
2022-11-15T17:50:38.573Z,104.50
2022-11-15T17:54:40.233Z,126.30
2022-11-15T17:58:47.030Z,107.25
2022-11-15T18:02:48.645Z,126.38
2022-11-15T18:06:50.631Z,118.30
2022-11-15T18:11:05.523Z,111.22
2022-11-15T18:15:08.204Z,98.45
2022-11-15T18:19:13.559Z,114.53
2022-11-15T18:23:16.730Z,101.63
2022-11-15T18:27:18.514Z,110.07
2022-11-15T18:31:22.685Z,97.85
2022-11-15T18:35:24.308Z,100.70
2022-11-15T18:39:26.567Z,80.30
2022-11-15T18:43:28.207Z,78.63
2022-11-15T18:47:31.673Z,75.93
2022-11-15T18:51:35.727Z,70.55
2022-11-15T18:55:37.727Z,102.85
2022-11-15T18:59:39.405Z,87.80
2022-11-15T19:03:44.295Z,98.22
2022-11-15T19:07:48.733Z,89.95
2022-11-15T19:11:51.748Z,94.30
2022-11-15T19:15:58.683Z,80.55
2022-11-15T19:20:00.704Z,101.55
2022-11-15T19:24:02.509Z,115.63
2022-11-15T19:28:04.786Z,74.82
2022-11-15T19:32:06.429Z,95.53
2022-11-15T19:36:13.421Z,103.05
2022-11-15T19:40:15.200Z,114.40
2022-11-15T19:44:18.875Z,92.22
2022-11-15T19:48:20.790Z,87.93
2022-11-15T19:52:24.326Z,81.00
2022-11-15T19:56:25.928Z,94.10
2022-11-15T20:00:27.856Z,82.35
2022-11-15T20:04:29.721Z,86.88
2022-11-15T20:08:32.485Z,67.70
2022-11-15T20:12:34.234Z,59.17
2022-11-15T20:16:36.403Z,56.38
2022-11-15T20:20:38.126Z,87.85
2022-11-15T20:24:40.016Z,64.15
2022-11-15T20:28:41.856Z,63.78
2022-11-15T20:32:43.802Z,59.63
2022-11-15T20:36:45.541Z,70.15
2022-11-15T20:40:49.692Z,52.10
2022-11-15T20:44:51.321Z,59.25
2022-11-15T20:48:53.444Z,63.47
2022-11-15T20:52:57.923Z,74.63
2022-11-15T20:56:59.843Z,68.80
2022-11-15T21:01:01.692Z,61.65
2022-11-15T21:05:04.000Z,49.67
2022-11-15T21:09:24.438Z,44.88
2022-11-15T21:13:26.828Z,49.65
2022-11-15T21:17:29.045Z,41.63
2022-11-15T21:21:31.115Z,54.40
2022-11-15T21:25:33.905Z,54.95
2022-11-15T21:29:38.992Z,50.15
2022-11-15T21:33:40.577Z,51.03
2022-11-15T21:37:42.552Z,50.22
2022-11-15T21:41:44.765Z,51.78
2022-11-15T21:45:58.453Z,44.88
2022-11-15T21:50:00.097Z,51.58
2022-11-15T21:54:02.229Z,52.15
2022-11-15T21:58:03.814Z,50.75
2022-11-15T22:02:15.355Z,46.90
2022-11-15T22:06:18.207Z,51.38
2022-11-15T22:10:20.523Z,53.88
2022-11-15T22:14:22.332Z,60.60
2022-11-15T22:18:26.728Z,54.00
2022-11-15T22:22:28.597Z,66.40
2022-11-15T22:26:30.609Z,69.45
2022-11-15T22:30:32.597Z,62.47
2022-11-15T22:34:34.548Z,59.03
2022-11-15T22:38:36.967Z,70.80
2022-11-15T22:42:39.237Z,58.53
2022-11-15T22:46:40.986Z,64.97
2022-11-15T22:50:44.276Z,63.45
2022-11-15T22:54:45.994Z,63.33
2022-11-15T22:58:48.059Z,70.15
2022-11-15T23:02:54.214Z,67.18
2022-11-15T23:06:56.910Z,69.60
2022-11-15T23:11:21.574Z,64.65
2022-11-15T23:15:23.593Z,73.82
2022-11-15T23:19:25.442Z,74.03
2022-11-15T23:23:27.394Z,66.63
2022-11-15T23:27:29.120Z,78.20
2022-11-15T23:32:00.729Z,66.47
2022-11-15T23:36:04.022Z,74.03
2022-11-15T23:40:07.061Z,66.40
2022-11-15T23:44:10.081Z,78.25
2022-11-15T23:48:12.142Z,71.72
2022-11-15T23:52:15.457Z,67.47
2022-11-15T23:56:19.312Z,71.82
